sensor_id;sensor_type;location;lat;lon;timestamp;temperature;humidity
48579;DHT22;34357;51.948;6.132;2022-12-20T00:00:44;10.10;85.10
48579;DHT22;34357;51.948;6.132;2022-12-20T00:03:10;10.20;84.30
48579;DHT22;34357;51.948;6.132;2022-12-20T00:05:36;10.40;83.90
48579;DHT22;34357;51.948;6.132;2022-12-20T00:08:02;10.40;83.60
48579;DHT22;34357;51.948;6.132;2022-12-20T00:10:28;10.30;83.70
48579;DHT22;34357;51.948;6.132;2022-12-20T00:12:54;10.40;83.60
48579;DHT22;34357;51.948;6.132;2022-12-20T00:15:20;10.40;83.40
48579;DHT22;34357;51.948;6.132;2022-12-20T00:17:45;10.30;83.50
48579;DHT22;34357;51.948;6.132;2022-12-20T00:20:11;10.20;83.70
48579;DHT22;34357;51.948;6.132;2022-12-20T00:22:37;10.10;84.20
48579;DHT22;34357;51.948;6.132;2022-12-20T00:25:04;10.20;84.00
48579;DHT22;34357;51.948;6.132;2022-12-20T00:27:29;10.20;84.00
48579;DHT22;34357;51.948;6.132;2022-12-20T00:29:55;10.30;83.70
48579;DHT22;34357;51.948;6.132;2022-12-20T00:32:21;10.30;83.80
48579;DHT22;34357;51.948;6.132;2022-12-20T00:34:47;10.40;83.20
48579;DHT22;34357;51.948;6.132;2022-12-20T00:37:12;10.50;82.90
48579;DHT22;34357;51.948;6.132;2022-12-20T00:39:38;10.70;82.30
48579;DHT22;34357;51.948;6.132;2022-12-20T00:42:04;10.60;82.20
48579;DHT22;34357;51.948;6.132;2022-12-20T00:44:29;10.50;82.40
48579;DHT22;34357;51.948;6.132;2022-12-20T00:46:55;10.60;82.10
48579;DHT22;34357;51.948;6.132;2022-12-20T00:49:21;10.60;82.30
48579;DHT22;34357;51.948;6.132;2022-12-20T00:51:47;10.60;82.00
48579;DHT22;34357;51.948;6.132;2022-12-20T00:54:13;10.60;81.90
48579;DHT22;34357;51.948;6.132;2022-12-20T00:56:38;10.60;82.10
48579;DHT22;34357;51.948;6.132;2022-12-20T00:59:04;10.70;82.00
48579;DHT22;34357;51.948;6.132;2022-12-20T01:01:31;10.80;81.50
48579;DHT22;34357;51.948;6.132;2022-12-20T01:03:59;10.80;81.80
48579;DHT22;34357;51.948;6.132;2022-12-20T01:06:25;10.80;81.30
48579;DHT22;34357;51.948;6.132;2022-12-20T01:08:52;10.80;81.50
48579;DHT22;34357;51.948;6.132;2022-12-20T01:11:21;10.90;81.00
48579;DHT22;34357;51.948;6.132;2022-12-20T01:13:50;10.90;80.90
48579;DHT22;34357;51.948;6.132;2022-12-20T01:16:22;10.80;81.30
48579;DHT22;34357;51.948;6.132;2022-12-20T01:18:49;10.80;81.30
48579;DHT22;34357;51.948;6.132;2022-12-20T01:21:16;10.90;81.00
48579;DHT22;34357;51.948;6.132;2022-12-20T01:23:43;10.90;80.80
48579;DHT22;34357;51.948;6.132;2022-12-20T01:26:13;10.90;81.00
48579;DHT22;34357;51.948;6.132;2022-12-20T01:28:41;10.90;80.80
48579;DHT22;34357;51.948;6.132;2022-12-20T01:31:09;10.90;80.80
48579;DHT22;34357;51.948;6.132;2022-12-20T01:33:36;11.00;80.60
48579;DHT22;34357;51.948;6.132;2022-12-20T01:36:16;11.00;80.50
48579;DHT22;34357;51.948;6.132;2022-12-20T01:38:42;11.00;80.40
48579;DHT22;34357;51.948;6.132;2022-12-20T01:41:13;10.90;80.50
48579;DHT22;34357;51.948;6.132;2022-12-20T01:43:58;11.00;80.60
48579;DHT22;34357;51.948;6.132;2022-12-20T01:46:27;11.00;80.40
48579;DHT22;34357;51.948;6.132;2022-12-20T01:51:30;11.10;80.40
48579;DHT22;34357;51.948;6.132;2022-12-20T01:54:01;10.90;81.00
48579;DHT22;34357;51.948;6.132;2022-12-20T01:56:28;10.90;81.40
48579;DHT22;34357;51.948;6.132;2022-12-20T01:58:54;10.80;82.90
48579;DHT22;34357;51.948;6.132;2022-12-20T02:01:23;10.60;83.90
48579;DHT22;34357;51.948;6.132;2022-12-20T02:03:50;10.50;84.90
48579;DHT22;34357;51.948;6.132;2022-12-20T02:06:19;10.40;85.70
48579;DHT22;34357;51.948;6.132;2022-12-20T02:08:47;10.40;85.80
48579;DHT22;34357;51.948;6.132;2022-12-20T02:31:06;10.00;89.00
48579;DHT22;34357;51.948;6.132;2022-12-20T02:33:32;10.00;89.50
48579;DHT22;34357;51.948;6.132;2022-12-20T02:35:58;9.90;90.00
48579;DHT22;34357;51.948;6.132;2022-12-20T02:38:28;9.90;90.80
48579;DHT22;34357;51.948;6.132;2022-12-20T02:41:26;9.80;91.20
48579;DHT22;34357;51.948;6.132;2022-12-20T02:44:00;9.70;91.60
48579;DHT22;34357;51.948;6.132;2022-12-20T02:46:46;9.70;92.20
48579;DHT22;34357;51.948;6.132;2022-12-20T02:49:16;9.60;92.40
48579;DHT22;34357;51.948;6.132;2022-12-20T02:51:45;9.60;92.60
48579;DHT22;34357;51.948;6.132;2022-12-20T02:54:13;9.50;92.80
48579;DHT22;34357;51.948;6.132;2022-12-20T02:56:58;9.50;93.00
48579;DHT22;34357;51.948;6.132;2022-12-20T02:59:29;9.50;93.10
48579;DHT22;34357;51.948;6.132;2022-12-20T03:01:56;9.60;93.40
48579;DHT22;34357;51.948;6.132;2022-12-20T03:04:26;9.60;93.20
48579;DHT22;34357;51.948;6.132;2022-12-20T03:09:26;9.50;93.40
48579;DHT22;34357;51.948;6.132;2022-12-20T03:11:52;9.50;93.40
48579;DHT22;34357;51.948;6.132;2022-12-20T03:14:18;9.50;93.50
48579;DHT22;34357;51.948;6.132;2022-12-20T03:16:45;9.60;93.50
48579;DHT22;34357;51.948;6.132;2022-12-20T03:19:11;9.60;93.40
48579;DHT22;34357;51.948;6.132;2022-12-20T03:21:36;9.60;93.40
48579;DHT22;34357;51.948;6.132;2022-12-20T03:24:02;9.60;93.30
48579;DHT22;34357;51.948;6.132;2022-12-20T03:26:29;9.60;93.40
48579;DHT22;34357;51.948;6.132;2022-12-20T03:28:57;9.60;93.10
48579;DHT22;34357;51.948;6.132;2022-12-20T03:31:26;9.60;93.00
48579;DHT22;34357;51.948;6.132;2022-12-20T03:33:53;9.50;93.00
48579;DHT22;34357;51.948;6.132;2022-12-20T03:36:19;9.50;93.10
48579;DHT22;34357;51.948;6.132;2022-12-20T03:38:50;9.60;93.00
48579;DHT22;34357;51.948;6.132;2022-12-20T03:41:17;9.60;92.80
48579;DHT22;34357;51.948;6.132;2022-12-20T03:43:43;9.60;92.60
48579;DHT22;34357;51.948;6.132;2022-12-20T03:46:09;9.70;92.30
48579;DHT22;34357;51.948;6.132;2022-12-20T03:48:36;9.70;92.10
48579;DHT22;34357;51.948;6.132;2022-12-20T03:51:03;9.70;92.00
48579;DHT22;34357;51.948;6.132;2022-12-20T03:53:29;9.70;91.80
48579;DHT22;34357;51.948;6.132;2022-12-20T03:55:55;9.70;91.80
48579;DHT22;34357;51.948;6.132;2022-12-20T03:58:21;9.70;91.50
48579;DHT22;34357;51.948;6.132;2022-12-20T04:00:47;9.90;91.30
48579;DHT22;34357;51.948;6.132;2022-12-20T04:03:34;9.80;90.90
48579;DHT22;34357;51.948;6.132;2022-12-20T04:06:00;9.80;91.10
48579;DHT22;34357;51.948;6.132;2022-12-20T04:08:26;9.90;90.60
48579;DHT22;34357;51.948;6.132;2022-12-20T04:10:52;10.00;90.20
48579;DHT22;34357;51.948;6.132;2022-12-20T04:13:37;10.10;89.90
48579;DHT22;34357;51.948;6.132;2022-12-20T04:16:04;10.10;89.60
48579;DHT22;34357;51.948;6.132;2022-12-20T04:18:31;10.20;89.30
48579;DHT22;34357;51.948;6.132;2022-12-20T04:21:00;10.20;89.30
48579;DHT22;34357;51.948;6.132;2022-12-20T04:23:28;10.20;89.10
48579;DHT22;34357;51.948;6.132;2022-12-20T04:25:54;10.20;88.90
48579;DHT22;34357;51.948;6.132;2022-12-20T04:28:20;10.30;89.00
48579;DHT22;34357;51.948;6.132;2022-12-20T04:30:46;10.40;88.60
48579;DHT22;34357;51.948;6.132;2022-12-20T04:33:17;10.40;88.30
48579;DHT22;34357;51.948;6.132;2022-12-20T04:35:43;10.40;88.10
48579;DHT22;34357;51.948;6.132;2022-12-20T04:38:09;10.40;88.10
48579;DHT22;34357;51.948;6.132;2022-12-20T04:40:35;10.40;88.20
48579;DHT22;34357;51.948;6.132;2022-12-20T04:43:03;10.50;87.70
48579;DHT22;34357;51.948;6.132;2022-12-20T04:45:29;10.50;87.60
48579;DHT22;34357;51.948;6.132;2022-12-20T04:47:56;10.40;88.00
48579;DHT22;34357;51.948;6.132;2022-12-20T04:50:26;10.50;88.20
48579;DHT22;34357;51.948;6.132;2022-12-20T04:52:52;10.50;88.00
48579;DHT22;34357;51.948;6.132;2022-12-20T04:55:38;10.70;87.50
48579;DHT22;34357;51.948;6.132;2022-12-20T04:58:04;10.60;87.50
48579;DHT22;34357;51.948;6.132;2022-12-20T05:00:30;10.70;87.60
48579;DHT22;34357;51.948;6.132;2022-12-20T05:03:03;10.70;87.80
48579;DHT22;34357;51.948;6.132;2022-12-20T05:05:29;10.70;88.00
48579;DHT22;34357;51.948;6.132;2022-12-20T05:07:56;10.70;87.90
48579;DHT22;34357;51.948;6.132;2022-12-20T05:10:22;10.70;87.90
48579;DHT22;34357;51.948;6.132;2022-12-20T05:12:50;10.60;87.70
48579;DHT22;34357;51.948;6.132;2022-12-20T05:15:29;10.60;88.00
48579;DHT22;34357;51.948;6.132;2022-12-20T05:17:55;10.60;87.90
48579;DHT22;34357;51.948;6.132;2022-12-20T05:20:29;10.60;87.80
48579;DHT22;34357;51.948;6.132;2022-12-20T05:22:57;10.60;87.60
48579;DHT22;34357;51.948;6.132;2022-12-20T05:25:46;10.70;88.00
48579;DHT22;34357;51.948;6.132;2022-12-20T05:28:31;10.70;88.30
48579;DHT22;34357;51.948;6.132;2022-12-20T05:30:58;10.60;88.50
48579;DHT22;34357;51.948;6.132;2022-12-20T05:33:24;10.60;88.50
48579;DHT22;34357;51.948;6.132;2022-12-20T05:35:50;10.60;88.50
48579;DHT22;34357;51.948;6.132;2022-12-20T05:38:16;10.60;88.90
48579;DHT22;34357;51.948;6.132;2022-12-20T05:40:41;10.60;89.30
48579;DHT22;34357;51.948;6.132;2022-12-20T05:43:09;10.40;89.80
48579;DHT22;34357;51.948;6.132;2022-12-20T05:45:52;10.30;90.30
48579;DHT22;34357;51.948;6.132;2022-12-20T05:48:28;10.30;90.40
48579;DHT22;34357;51.948;6.132;2022-12-20T05:50:54;10.20;90.80
48579;DHT22;34357;51.948;6.132;2022-12-20T05:53:31;10.30;90.90
48579;DHT22;34357;51.948;6.132;2022-12-20T05:56:00;10.20;91.00
48579;DHT22;34357;51.948;6.132;2022-12-20T05:58:30;10.20;91.20
48579;DHT22;34357;51.948;6.132;2022-12-20T06:01:02;10.20;91.10
48579;DHT22;34357;51.948;6.132;2022-12-20T06:03:32;10.20;91.20
48579;DHT22;34357;51.948;6.132;2022-12-20T06:05:59;10.10;91.20
48579;DHT22;34357;51.948;6.132;2022-12-20T06:08:27;10.20;91.20
48579;DHT22;34357;51.948;6.132;2022-12-20T06:10:54;10.10;91.20
48579;DHT22;34357;51.948;6.132;2022-12-20T06:13:21;10.20;90.90
48579;DHT22;34357;51.948;6.132;2022-12-20T06:15:49;10.20;90.90
48579;DHT22;34357;51.948;6.132;2022-12-20T06:18:17;10.30;90.60
48579;DHT22;34357;51.948;6.132;2022-12-20T06:20:49;10.30;90.50
48579;DHT22;34357;51.948;6.132;2022-12-20T06:23:17;10.30;90.40
48579;DHT22;34357;51.948;6.132;2022-12-20T06:25:53;10.50;89.80
48579;DHT22;34357;51.948;6.132;2022-12-20T06:28:19;10.50;89.50
48579;DHT22;34357;51.948;6.132;2022-12-20T06:30:56;10.50;89.60
48579;DHT22;34357;51.948;6.132;2022-12-20T06:33:35;10.50;89.40
48579;DHT22;34357;51.948;6.132;2022-12-20T06:36:02;10.60;89.30
48579;DHT22;34357;51.948;6.132;2022-12-20T06:38:28;10.70;89.10
48579;DHT22;34357;51.948;6.132;2022-12-20T06:40:54;10.70;88.90
48579;DHT22;34357;51.948;6.132;2022-12-20T06:43:21;10.60;89.00
48579;DHT22;34357;51.948;6.132;2022-12-20T06:45:46;10.60;88.90
48579;DHT22;34357;51.948;6.132;2022-12-20T06:48:12;10.60;88.70
48579;DHT22;34357;51.948;6.132;2022-12-20T06:50:39;10.60;88.40
48579;DHT22;34357;51.948;6.132;2022-12-20T06:53:05;10.60;88.40
48579;DHT22;34357;51.948;6.132;2022-12-20T06:55:32;10.60;88.50
48579;DHT22;34357;51.948;6.132;2022-12-20T06:57:57;10.60;88.40
48579;DHT22;34357;51.948;6.132;2022-12-20T07:00:24;10.60;88.20
48579;DHT22;34357;51.948;6.132;2022-12-20T07:02:50;10.60;88.10
48579;DHT22;34357;51.948;6.132;2022-12-20T07:05:16;10.60;87.80
48579;DHT22;34357;51.948;6.132;2022-12-20T07:07:42;10.60;87.70
48579;DHT22;34357;51.948;6.132;2022-12-20T07:10:08;10.60;87.50
48579;DHT22;34357;51.948;6.132;2022-12-20T07:12:34;10.70;87.30
48579;DHT22;34357;51.948;6.132;2022-12-20T07:15:00;10.70;87.00
48579;DHT22;34357;51.948;6.132;2022-12-20T07:17:25;10.60;87.10
48579;DHT22;34357;51.948;6.132;2022-12-20T07:19:51;10.60;87.10
48579;DHT22;34357;51.948;6.132;2022-12-20T07:22:17;10.50;87.30
48579;DHT22;34357;51.948;6.132;2022-12-20T07:24:42;10.50;87.30
48579;DHT22;34357;51.948;6.132;2022-12-20T07:27:09;10.40;87.40
48579;DHT22;34357;51.948;6.132;2022-12-20T07:29:36;10.30;87.40
48579;DHT22;34357;51.948;6.132;2022-12-20T07:32:05;10.30;87.50
48579;DHT22;34357;51.948;6.132;2022-12-20T07:34:30;10.40;87.10
48579;DHT22;34357;51.948;6.132;2022-12-20T07:36:56;10.40;87.00
48579;DHT22;34357;51.948;6.132;2022-12-20T07:39:22;10.40;87.20
48579;DHT22;34357;51.948;6.132;2022-12-20T07:41:47;10.40;86.90
48579;DHT22;34357;51.948;6.132;2022-12-20T07:44:15;10.40;86.80
48579;DHT22;34357;51.948;6.132;2022-12-20T07:46:41;10.40;86.60
48579;DHT22;34357;51.948;6.132;2022-12-20T07:49:07;10.40;86.80
48579;DHT22;34357;51.948;6.132;2022-12-20T07:51:39;10.40;86.70
48579;DHT22;34357;51.948;6.132;2022-12-20T07:56:38;10.40;86.90
48579;DHT22;34357;51.948;6.132;2022-12-20T07:59:04;10.30;86.80
48579;DHT22;34357;51.948;6.132;2022-12-20T08:01:31;10.30;86.90
48579;DHT22;34357;51.948;6.132;2022-12-20T08:04:01;10.30;86.80
48579;DHT22;34357;51.948;6.132;2022-12-20T08:06:29;10.30;86.90
48579;DHT22;34357;51.948;6.132;2022-12-20T08:08:57;10.30;87.00
48579;DHT22;34357;51.948;6.132;2022-12-20T08:11:26;10.30;86.90
48579;DHT22;34357;51.948;6.132;2022-12-20T08:13:53;10.20;86.80
48579;DHT22;34357;51.948;6.132;2022-12-20T08:16:19;10.30;86.70
48579;DHT22;34357;51.948;6.132;2022-12-20T08:18:45;10.20;86.50
48579;DHT22;34357;51.948;6.132;2022-12-20T08:21:11;10.30;86.60
48579;DHT22;34357;51.948;6.132;2022-12-20T08:23:39;10.20;86.60
48579;DHT22;34357;51.948;6.132;2022-12-20T08:26:05;10.30;86.60
48579;DHT22;34357;51.948;6.132;2022-12-20T08:28:31;10.20;86.60
48579;DHT22;34357;51.948;6.132;2022-12-20T08:31:01;10.30;87.00
48579;DHT22;34357;51.948;6.132;2022-12-20T08:33:27;10.20;87.20
48579;DHT22;34357;51.948;6.132;2022-12-20T08:35:58;10.20;87.20
48579;DHT22;34357;51.948;6.132;2022-12-20T08:38:31;10.20;87.30
48579;DHT22;34357;51.948;6.132;2022-12-20T08:41:23;10.20;87.50
48579;DHT22;34357;51.948;6.132;2022-12-20T08:43:49;10.20;87.30
48579;DHT22;34357;51.948;6.132;2022-12-20T08:46:15;10.30;87.00
48579;DHT22;34357;51.948;6.132;2022-12-20T08:48:41;10.40;87.10
48579;DHT22;34357;51.948;6.132;2022-12-20T08:51:08;10.40;86.60
48579;DHT22;34357;51.948;6.132;2022-12-20T08:53:35;10.80;86.00
48579;DHT22;34357;51.948;6.132;2022-12-20T08:56:06;10.70;86.50
48579;DHT22;34357;51.948;6.132;2022-12-20T08:58:33;10.80;86.20
48579;DHT22;34357;51.948;6.132;2022-12-20T09:00:59;10.90;86.20
48579;DHT22;34357;51.948;6.132;2022-12-20T09:03:28;10.70;86.70
48579;DHT22;34357;51.948;6.132;2022-12-20T09:05:54;10.70;87.30
48579;DHT22;34357;51.948;6.132;2022-12-20T09:08:20;10.60;88.00
48579;DHT22;34357;51.948;6.132;2022-12-20T09:10:45;10.60;88.00
48579;DHT22;34357;51.948;6.132;2022-12-20T09:13:11;10.50;88.50
48579;DHT22;34357;51.948;6.132;2022-12-20T09:15:37;10.50;88.70
48579;DHT22;34357;51.948;6.132;2022-12-20T09:18:03;10.50;89.20
48579;DHT22;34357;51.948;6.132;2022-12-20T09:20:31;10.40;89.60
48579;DHT22;34357;51.948;6.132;2022-12-20T09:22:58;10.30;89.90
48579;DHT22;34357;51.948;6.132;2022-12-20T09:25:25;10.30;90.20
48579;DHT22;34357;51.948;6.132;2022-12-20T09:27:52;10.30;90.40
48579;DHT22;34357;51.948;6.132;2022-12-20T09:30:19;10.30;90.40
48579;DHT22;34357;51.948;6.132;2022-12-20T09:32:45;10.20;91.00
48579;DHT22;34357;51.948;6.132;2022-12-20T09:35:11;10.20;91.10
48579;DHT22;34357;51.948;6.132;2022-12-20T09:37:36;10.10;91.20
48579;DHT22;34357;51.948;6.132;2022-12-20T09:40:02;10.10;91.60
48579;DHT22;34357;51.948;6.132;2022-12-20T09:42:29;10.00;91.60
48579;DHT22;34357;51.948;6.132;2022-12-20T09:45:07;10.00;91.70
48579;DHT22;34357;51.948;6.132;2022-12-20T09:47:34;10.00;92.00
48579;DHT22;34357;51.948;6.132;2022-12-20T09:50:02;9.90;92.10
48579;DHT22;34357;51.948;6.132;2022-12-20T09:52:49;10.00;92.30
48579;DHT22;34357;51.948;6.132;2022-12-20T09:55:32;9.90;92.30
48579;DHT22;34357;51.948;6.132;2022-12-20T09:58:21;9.90;92.60
48579;DHT22;34357;51.948;6.132;2022-12-20T10:00:50;10.00;92.80
48579;DHT22;34357;51.948;6.132;2022-12-20T10:03:27;10.00;92.70
48579;DHT22;34357;51.948;6.132;2022-12-20T10:06:12;10.00;92.70
48579;DHT22;34357;51.948;6.132;2022-12-20T10:08:44;10.00;92.70
48579;DHT22;34357;51.948;6.132;2022-12-20T10:11:50;10.00;92.70
48579;DHT22;34357;51.948;6.132;2022-12-20T10:17:13;10.10;92.50
48579;DHT22;34357;51.948;6.132;2022-12-20T10:25:18;10.10;92.60
48579;DHT22;34357;51.948;6.132;2022-12-20T10:27:45;10.00;92.50
48579;DHT22;34357;51.948;6.132;2022-12-20T10:30:18;10.10;92.60
48579;DHT22;34357;51.948;6.132;2022-12-20T10:32:45;10.10;92.70
48579;DHT22;34357;51.948;6.132;2022-12-20T10:38:00;10.10;92.50
48579;DHT22;34357;51.948;6.132;2022-12-20T10:40:38;10.20;92.40
48579;DHT22;34357;51.948;6.132;2022-12-20T10:43:05;10.10;92.40
48579;DHT22;34357;51.948;6.132;2022-12-20T10:45:37;10.20;92.40
48579;DHT22;34357;51.948;6.132;2022-12-20T10:51:03;10.30;92.10
48579;DHT22;34357;51.948;6.132;2022-12-20T10:53:50;10.30;92.00
48579;DHT22;34357;51.948;6.132;2022-12-20T10:56:23;10.40;91.70
48579;DHT22;34357;51.948;6.132;2022-12-20T11:01:25;10.40;91.90
48579;DHT22;34357;51.948;6.132;2022-12-20T11:03:56;10.40;91.90
48579;DHT22;34357;51.948;6.132;2022-12-20T11:06:26;10.40;91.80
48579;DHT22;34357;51.948;6.132;2022-12-20T11:08:53;10.40;91.90
48579;DHT22;34357;51.948;6.132;2022-12-20T11:11:25;10.40;91.80
48579;DHT22;34357;51.948;6.132;2022-12-20T11:13:51;10.40;91.90
48579;DHT22;34357;51.948;6.132;2022-12-20T11:16:25;10.40;91.90
48579;DHT22;34357;51.948;6.132;2022-12-20T11:19:01;10.40;91.90
48579;DHT22;34357;51.948;6.132;2022-12-20T11:27:15;10.30;92.70
48579;DHT22;34357;51.948;6.132;2022-12-20T11:32:41;10.30;93.10
48579;DHT22;34357;51.948;6.132;2022-12-20T11:35:12;10.20;93.00
48579;DHT22;34357;51.948;6.132;2022-12-20T11:40:36;10.20;93.00
48579;DHT22;34357;51.948;6.132;2022-12-20T11:54:03;10.30;93.00
48579;DHT22;34357;51.948;6.132;2022-12-20T11:56:36;10.40;92.90
48579;DHT22;34357;51.948;6.132;2022-12-20T12:04:30;10.40;92.90
48579;DHT22;34357;51.948;6.132;2022-12-20T12:07:28;10.40;93.10
48579;DHT22;34357;51.948;6.132;2022-12-20T12:12:45;10.50;93.20
48579;DHT22;34357;51.948;6.132;2022-12-20T12:15:22;10.50;93.20
48579;DHT22;34357;51.948;6.132;2022-12-20T12:21:00;10.50;93.30
48579;DHT22;34357;51.948;6.132;2022-12-20T12:23:43;10.50;93.30
48579;DHT22;34357;51.948;6.132;2022-12-20T12:26:32;10.50;93.40
48579;DHT22;34357;51.948;6.132;2022-12-20T12:29:18;10.60;93.30
48579;DHT22;34357;51.948;6.132;2022-12-20T12:32:07;10.60;93.30
48579;DHT22;34357;51.948;6.132;2022-12-20T12:45:20;10.50;93.70
48579;DHT22;34357;51.948;6.132;2022-12-20T12:48:13;10.50;93.70
48579;DHT22;34357;51.948;6.132;2022-12-20T12:50:49;10.50;93.80
48579;DHT22;34357;51.948;6.132;2022-12-20T12:53:16;10.50;93.90
48579;DHT22;34357;51.948;6.132;2022-12-20T13:00:59;10.50;93.90
48579;DHT22;34357;51.948;6.132;2022-12-20T13:11:42;10.40;93.90
48579;DHT22;34357;51.948;6.132;2022-12-20T13:19:50;10.40;94.20
48579;DHT22;34357;51.948;6.132;2022-12-20T13:22:22;10.40;94.20
48579;DHT22;34357;51.948;6.132;2022-12-20T13:24:58;10.40;94.30
48579;DHT22;34357;51.948;6.132;2022-12-20T13:27:44;10.40;94.40
48579;DHT22;34357;51.948;6.132;2022-12-20T13:40:58;10.40;94.70
48579;DHT22;34357;51.948;6.132;2022-12-20T13:43:28;10.40;94.70
48579;DHT22;34357;51.948;6.132;2022-12-20T13:46:11;10.40;94.80
48579;DHT22;34357;51.948;6.132;2022-12-20T13:48:53;10.40;94.80
48579;DHT22;34357;51.948;6.132;2022-12-20T13:51:25;10.40;94.80
48579;DHT22;34357;51.948;6.132;2022-12-20T13:59:23;10.40;94.90
48579;DHT22;34357;51.948;6.132;2022-12-20T14:01:53;10.40;95.00
48579;DHT22;34357;51.948;6.132;2022-12-20T14:04:20;10.40;95.00
48579;DHT22;34357;51.948;6.132;2022-12-20T14:06:58;10.40;95.00
48579;DHT22;34357;51.948;6.132;2022-12-20T14:09:31;10.40;95.00
48579;DHT22;34357;51.948;6.132;2022-12-20T14:12:15;10.40;94.90
48579;DHT22;34357;51.948;6.132;2022-12-20T14:14:46;10.40;95.00
48579;DHT22;34357;51.948;6.132;2022-12-20T14:17:25;10.40;95.00
48579;DHT22;34357;51.948;6.132;2022-12-20T14:20:48;10.40;95.00
48579;DHT22;34357;51.948;6.132;2022-12-20T14:22:54;10.40;95.00
48579;DHT22;34357;51.948;6.132;2022-12-20T14:26:03;10.30;95.00
48579;DHT22;34357;51.948;6.132;2022-12-20T14:31:00;10.40;95.10
48579;DHT22;34357;51.948;6.132;2022-12-20T14:38:44;10.40;95.10
48579;DHT22;34357;51.948;6.132;2022-12-20T14:41:36;10.30;95.10
48579;DHT22;34357;51.948;6.132;2022-12-20T14:44:14;10.30;95.20
48579;DHT22;34357;51.948;6.132;2022-12-20T14:46:49;10.30;95.10
48579;DHT22;34357;51.948;6.132;2022-12-20T14:51:47;10.30;95.20
48579;DHT22;34357;51.948;6.132;2022-12-20T14:54:22;10.30;95.20
48579;DHT22;34357;51.948;6.132;2022-12-20T14:56:50;10.30;95.20
48579;DHT22;34357;51.948;6.132;2022-12-20T14:59:25;10.30;95.20
48579;DHT22;34357;51.948;6.132;2022-12-20T15:01:52;10.30;95.20
48579;DHT22;34357;51.948;6.132;2022-12-20T15:04:24;10.30;95.30
48579;DHT22;34357;51.948;6.132;2022-12-20T15:06:54;10.30;95.20
48579;DHT22;34357;51.948;6.132;2022-12-20T15:09:20;10.30;95.20
48579;DHT22;34357;51.948;6.132;2022-12-20T15:11:46;10.30;95.20
48579;DHT22;34357;51.948;6.132;2022-12-20T15:14:20;10.30;95.20
48579;DHT22;34357;51.948;6.132;2022-12-20T15:16:48;10.30;95.20
48579;DHT22;34357;51.948;6.132;2022-12-20T15:19:14;10.30;95.20
48579;DHT22;34357;51.948;6.132;2022-12-20T15:21:41;10.30;95.20
48579;DHT22;34357;51.948;6.132;2022-12-20T15:24:14;10.20;95.20
48579;DHT22;34357;51.948;6.132;2022-12-20T15:26:41;10.20;95.20
48579;DHT22;34357;51.948;6.132;2022-12-20T15:29:18;10.20;95.20
48579;DHT22;34357;51.948;6.132;2022-12-20T15:31:45;10.20;95.30
48579;DHT22;34357;51.948;6.132;2022-12-20T15:36:44;10.20;95.20
48579;DHT22;34357;51.948;6.132;2022-12-20T15:39:11;10.20;95.30
48579;DHT22;34357;51.948;6.132;2022-12-20T15:41:39;10.20;95.20
48579;DHT22;34357;51.948;6.132;2022-12-20T15:44:12;10.20;95.20
48579;DHT22;34357;51.948;6.132;2022-12-20T15:46:38;10.20;95.10
48579;DHT22;34357;51.948;6.132;2022-12-20T15:49:04;10.20;95.10
48579;DHT22;34357;51.948;6.132;2022-12-20T15:53:58;10.10;95.10
48579;DHT22;34357;51.948;6.132;2022-12-20T15:56:25;10.10;95.10
48579;DHT22;34357;51.948;6.132;2022-12-20T15:58:51;10.10;95.10
48579;DHT22;34357;51.948;6.132;2022-12-20T16:01:21;10.10;95.10
48579;DHT22;34357;51.948;6.132;2022-12-20T16:03:48;10.10;95.10
48579;DHT22;34357;51.948;6.132;2022-12-20T16:06:14;10.10;95.20
48579;DHT22;34357;51.948;6.132;2022-12-20T16:08:40;10.10;95.10
48579;DHT22;34357;51.948;6.132;2022-12-20T16:11:25;10.10;95.10
48579;DHT22;34357;51.948;6.132;2022-12-20T16:13:53;10.10;95.10
48579;DHT22;34357;51.948;6.132;2022-12-20T16:16:24;10.00;95.10
48579;DHT22;34357;51.948;6.132;2022-12-20T16:18:51;10.10;95.10
48579;DHT22;34357;51.948;6.132;2022-12-20T16:21:20;10.10;95.10
48579;DHT22;34357;51.948;6.132;2022-12-20T16:23:47;10.00;95.10
48579;DHT22;34357;51.948;6.132;2022-12-20T16:26:14;10.10;95.10
48579;DHT22;34357;51.948;6.132;2022-12-20T16:28:41;10.10;95.10
48579;DHT22;34357;51.948;6.132;2022-12-20T16:31:31;10.00;95.10
48579;DHT22;34357;51.948;6.132;2022-12-20T16:33:58;10.10;95.00
48579;DHT22;34357;51.948;6.132;2022-12-20T16:36:25;10.00;95.10
48579;DHT22;34357;51.948;6.132;2022-12-20T16:38:51;10.00;95.10
48579;DHT22;34357;51.948;6.132;2022-12-20T16:41:19;10.10;95.10
48579;DHT22;34357;51.948;6.132;2022-12-20T16:43:46;10.10;95.00
48579;DHT22;34357;51.948;6.132;2022-12-20T16:46:14;10.00;95.10
48579;DHT22;34357;51.948;6.132;2022-12-20T16:48:41;10.10;95.10
48579;DHT22;34357;51.948;6.132;2022-12-20T16:51:30;10.00;95.00
48579;DHT22;34357;51.948;6.132;2022-12-20T16:54:02;10.00;95.00
48579;DHT22;34357;51.948;6.132;2022-12-20T16:56:28;10.00;95.10
48579;DHT22;34357;51.948;6.132;2022-12-20T16:58:55;10.00;95.10
48579;DHT22;34357;51.948;6.132;2022-12-20T17:01:42;10.00;95.20
48579;DHT22;34357;51.948;6.132;2022-12-20T17:04:13;10.00;95.20
48579;DHT22;34357;51.948;6.132;2022-12-20T17:06:39;10.00;95.20
48579;DHT22;34357;51.948;6.132;2022-12-20T17:09:05;10.00;95.20
48579;DHT22;34357;51.948;6.132;2022-12-20T17:11:31;10.00;95.20
48579;DHT22;34357;51.948;6.132;2022-12-20T17:13:57;9.90;95.20
48579;DHT22;34357;51.948;6.132;2022-12-20T17:16:24;9.90;95.20
48579;DHT22;34357;51.948;6.132;2022-12-20T17:18:52;10.00;95.30
48579;DHT22;34357;51.948;6.132;2022-12-20T17:23:44;10.00;95.30
48579;DHT22;34357;51.948;6.132;2022-12-20T17:26:15;10.00;95.30
48579;DHT22;34357;51.948;6.132;2022-12-20T17:28:41;10.00;95.30
48579;DHT22;34357;51.948;6.132;2022-12-20T17:31:29;9.90;95.30
48579;DHT22;34357;51.948;6.132;2022-12-20T17:33:56;9.90;95.30
48579;DHT22;34357;51.948;6.132;2022-12-20T17:36:22;9.90;95.40
48579;DHT22;34357;51.948;6.132;2022-12-20T17:38:49;9.90;95.30
48579;DHT22;34357;51.948;6.132;2022-12-20T17:41:29;9.90;95.40
48579;DHT22;34357;51.948;6.132;2022-12-20T17:43:56;9.90;95.40
48579;DHT22;34357;51.948;6.132;2022-12-20T17:46:22;9.90;95.40
48579;DHT22;34357;51.948;6.132;2022-12-20T17:48:49;9.90;95.50
48579;DHT22;34357;51.948;6.132;2022-12-20T17:51:21;9.90;95.40
48579;DHT22;34357;51.948;6.132;2022-12-20T17:53:48;9.90;95.50
48579;DHT22;34357;51.948;6.132;2022-12-20T17:56:16;9.90;95.40
48579;DHT22;34357;51.948;6.132;2022-12-20T17:58:42;9.90;95.50
48579;DHT22;34357;51.948;6.132;2022-12-20T18:01:22;9.90;95.50
48579;DHT22;34357;51.948;6.132;2022-12-20T18:03:49;9.90;95.60
48579;DHT22;34357;51.948;6.132;2022-12-20T18:06:16;9.90;95.60
48579;DHT22;34357;51.948;6.132;2022-12-20T18:08:53;9.90;95.50
48579;DHT22;34357;51.948;6.132;2022-12-20T18:11:20;9.90;95.60